Terminal Aerodrome Forecast
Issued by NWS

Home | Current Version | Previous Version | Text Only | Print | Product List | Glossary On
Versions: 1 2 3 4 5 6 7 8 9 10 11 12 13 14
000
FTUS45 KRIW 162300
TAFCPR
TAF
KCPR 162328Z 1700/1724 01008KT P6SM VCSH FEW040 BKN080
     FM170200 07007KT P6SM SCT090 BKN150
     FM171100 21009KT P6SM FEW100 SCT200
     FM171900 24014G22KT P6SM SCT080 BKN150=

USA.gov is the U.S. government's official web portal to all federal, state and local government web resources and services.